Lockport, NY

6:40 PM EDT on August 27, 2015 (GMT -0400)
KNYLOCKP3 | | Change Station
CLOSE
Current Station
Personal Weather Station
Location: Lockport, NY
Elevation: 614 ft
Nearby Weather Stations

Elev 614 ft 43.17 °N, 78.68 °W | Updated 14 seconds ago

Overcast
Overcast
69.8 °F
Feels Like 69.8 °F
N
2.0
Wind Variable Wind from NNW
Gusts 2.0 mph

Today
High -- | Low -- °F
--% Chance of Precip.
Yesterday
High -- | Low -- °F
Precip. -- in
6:33 AM 7:58 PM
Waxing Gibbous, 95% visible
Pressure 30.13 in
Visibility 10.0 miles
Clouds Scattered Clouds 5000 ft
Dew Point 58 °F
Humidity 67%
Rainfall 0.00 in
Snow Depth Not available.
UV 1 out of 12
Pollen 9.80 out of 12
Air Quality Not available.
Flu Activity Not available.
METAR KIAG 272153Z 36005KT 10SM SCT050 19/11 A3013 RMK AO2 SLP203 T01940106
Pressure 30.13 in
Visibility 10.0 miles
Clouds Scattered Clouds 5000 ft
Dew Point 58 °F
Humidity 67%
Rainfall 0.00 in
Snow Depth Not available.
UV 1 out of 12
Pollen 9.80 out of 12
Air Quality Not available.
Flu Activity Not available.
METAR KIAG 272153Z 36005KT 10SM SCT050 19/11 A3013 RMK AO2 SLP203 T01940106

10-Day Weather Forecast

×

Almanac

Astronomy

Aug. 27, 2015 Rise Set
Actual Time
Civil Twilight
Nautical Twilight
Astronomical Twilight
Moon
Length of Visible Light
Length of Day
Tomorrow will be .
, % of the Moon is Illuminated

Today's Extremes

State Highs State Lows

Community

WunderPhotos

Upload Photos

1,850,252 photos uploaded!

WunderBlogs® & News

Nearby

Air Quality

  Air Quality AQ Index Pollutant
Not available.

Snow Depth

Station Depth Elevation

Earthquake Activity

City Distance Mag. Time & Date
Minimum magnitude displayed is 2.5.

Coastal Water Temperatures

Place Temperature

Stations

Nearby Weather Stations

Station Location Temp. Windchill Dew Point Humidity Wind Precip. Elev Updated Type